createdAt,value
2023-02-09T00:01:30.134Z,15.20
2023-02-09T00:03:59.356Z,15.32
2023-02-09T00:06:29.927Z,16.20
2023-02-09T00:08:59.951Z,17.35
2023-02-09T00:11:43.762Z,15.93
2023-02-09T00:14:12.318Z,16.33
2023-02-09T00:16:41.019Z,15.85
2023-02-09T00:19:09.143Z,15.15
2023-02-09T00:21:37.612Z,16.50
2023-02-09T00:24:08.265Z,17.73
2023-02-09T00:26:36.501Z,19.20
2023-02-09T00:29:04.967Z,17.55
2023-02-09T00:31:33.500Z,17.90
2023-02-09T00:34:01.623Z,17.10
2023-02-09T00:36:30.267Z,16.33
2023-02-09T00:38:58.424Z,17.38
2023-02-09T00:41:41.885Z,15.98
2023-02-09T00:44:10.992Z,16.55
2023-02-09T00:46:39.219Z,18.33
2023-02-09T00:49:07.578Z,17.93
2023-02-09T00:51:35.895Z,17.88
2023-02-09T00:54:04.337Z,17.40
2023-02-09T00:56:33.904Z,15.32
2023-02-09T00:59:01.985Z,16.98
2023-02-09T01:01:30.235Z,16.58
2023-02-09T01:03:58.315Z,15.63
2023-02-09T01:06:26.418Z,16.83
2023-02-09T01:08:54.667Z,17.40
2023-02-09T01:11:27.989Z,15.63
2023-02-09T01:13:59.195Z,16.33
2023-02-09T01:16:28.770Z,16.40
2023-02-09T01:18:57.456Z,16.30
2023-02-09T01:21:25.686Z,16.00
2023-02-09T01:23:54.009Z,15.82
2023-02-09T01:26:22.398Z,17.17
2023-02-09T01:28:51.983Z,17.60
2023-02-09T01:31:25.926Z,16.80
2023-02-09T01:33:55.058Z,16.50
2023-02-09T01:36:23.808Z,15.88
2023-02-09T01:38:51.933Z,15.90
2023-02-09T01:41:20.022Z,16.23
2023-02-09T01:44:00.048Z,15.20
2023-02-09T01:46:31.447Z,16.65
2023-02-09T01:49:05.195Z,16.58
2023-02-09T01:51:37.269Z,16.77
2023-02-09T01:54:08.708Z,16.23
2023-02-09T01:56:39.750Z,15.43
2023-02-09T01:59:08.982Z,16.23
2023-02-09T02:01:38.946Z,16.20
2023-02-09T02:04:07.238Z,15.57
2023-02-09T02:06:35.479Z,15.80
2023-02-09T02:09:05.802Z,15.80
2023-02-09T02:11:34.007Z,16.10
2023-02-09T02:14:02.100Z,15.82
2023-02-09T02:16:46.118Z,15.98
2023-02-09T02:19:39.232Z,16.15
2023-02-09T02:22:45.290Z,17.13
2023-02-09T02:25:48.275Z,16.15
2023-02-09T02:28:41.959Z,15.00
2023-02-09T02:31:47.594Z,17.27
2023-02-09T02:34:22.928Z,16.25
2023-02-09T02:37:00.852Z,16.98
2023-02-09T02:39:36.204Z,16.02
2023-02-09T02:42:28.678Z,16.33
2023-02-09T02:45:07.550Z,15.98
2023-02-09T02:47:40.288Z,14.63
2023-02-09T02:50:15.927Z,17.38
2023-02-09T02:52:47.089Z,15.98
2023-02-09T02:55:17.332Z,17.55
2023-02-09T02:57:50.270Z,17.13
2023-02-09T03:00:22.296Z,17.38
2023-02-09T03:02:53.341Z,16.30
2023-02-09T03:05:24.860Z,15.15
2023-02-09T03:07:53.451Z,17.17
2023-02-09T03:10:32.538Z,16.23
2023-02-09T03:13:09.251Z,15.63
2023-02-09T03:15:47.445Z,16.50
2023-02-09T03:18:24.063Z,16.10
2023-02-09T03:20:57.896Z,17.23
2023-02-09T03:23:33.940Z,17.17
2023-02-09T03:26:08.540Z,16.92
2023-02-09T03:28:39.119Z,17.90
2023-02-09T03:31:07.805Z,18.35
2023-02-09T03:33:39.051Z,17.83
2023-02-09T03:36:14.751Z,15.48
2023-02-09T03:38:42.732Z,17.58
2023-02-09T03:41:10.709Z,18.10
2023-02-09T03:43:55.924Z,18.65
2023-02-09T03:46:23.972Z,18.08
2023-02-09T03:48:52.207Z,18.23
2023-02-09T03:51:21.552Z,18.30
2023-02-09T03:53:49.456Z,17.73
2023-02-09T03:56:17.652Z,17.77
2023-02-09T03:58:45.665Z,17.42
2023-02-09T04:01:13.752Z,17.55
2023-02-09T04:03:41.722Z,18.67
2023-02-09T04:06:10.927Z,17.48
2023-02-09T04:08:40.939Z,18.67
2023-02-09T04:11:09.183Z,19.15
2023-02-09T04:13:37.240Z,19.33
2023-02-09T04:16:05.705Z,15.70
2023-02-09T04:18:33.696Z,16.65
2023-02-09T04:21:01.717Z,17.70
2023-02-09T04:23:29.731Z,17.13
2023-02-09T04:25:59.106Z,19.10
2023-02-09T04:28:27.251Z,16.50
2023-02-09T04:30:55.746Z,18.33
2023-02-09T04:33:24.706Z,17.33
2023-02-09T04:35:52.943Z,16.95
2023-02-09T04:38:22.316Z,17.58
2023-02-09T04:40:51.629Z,16.25
2023-02-09T04:43:21.405Z,15.57
2023-02-09T04:45:49.544Z,16.38
2023-02-09T04:48:20.531Z,16.70
2023-02-09T04:50:49.000Z,14.98
2023-02-09T04:53:17.724Z,16.85
2023-02-09T04:55:46.896Z,15.48
2023-02-09T04:58:33.704Z,15.85
2023-02-09T05:01:03.686Z,15.23
2023-02-09T05:03:31.891Z,15.50
2023-02-09T05:06:01.328Z,16.05
2023-02-09T05:08:29.397Z,15.35
2023-02-09T05:10:57.865Z,16.40
2023-02-09T05:13:26.989Z,14.80
2023-02-09T05:15:55.326Z,15.93
2023-02-09T05:18:28.886Z,16.17
2023-02-09T05:20:58.475Z,16.17
2023-02-09T05:23:26.398Z,14.77
2023-02-09T05:25:54.971Z,15.40
2023-02-09T05:28:23.303Z,15.93
2023-02-09T05:30:53.776Z,14.82
2023-02-09T05:33:22.404Z,14.05
2023-02-09T05:35:52.982Z,15.32
2023-02-09T05:38:21.005Z,13.50
2023-02-09T05:40:49.374Z,13.25
2023-02-09T05:43:17.641Z,14.90
2023-02-09T05:45:46.623Z,13.40
2023-02-09T05:48:14.784Z,13.85
2023-02-09T05:50:42.872Z,13.27
2023-02-09T05:53:13.839Z,13.55
2023-02-09T05:55:43.629Z,15.80
2023-02-09T05:58:11.894Z,12.25
2023-02-09T06:00:40.024Z,14.52
2023-02-09T06:03:08.192Z,12.40
2023-02-09T06:05:36.340Z,12.65
2023-02-09T06:08:04.716Z,13.02
2023-02-09T06:10:34.150Z,13.05
2023-02-09T06:13:02.167Z,12.48
2023-02-09T06:15:30.144Z,12.93
2023-02-09T06:17:58.266Z,11.80
2023-02-09T06:20:26.491Z,11.05
2023-02-09T06:22:54.583Z,12.20
2023-02-09T06:25:22.597Z,12.32
2023-02-09T06:27:52.065Z,12.20
2023-02-09T06:30:20.656Z,12.00
2023-02-09T06:32:48.920Z,12.05
2023-02-09T06:35:17.054Z,11.98
2023-02-09T06:37:45.098Z,12.13
2023-02-09T06:40:13.828Z,12.07
2023-02-09T06:42:47.556Z,12.05
2023-02-09T06:45:18.497Z,11.90
2023-02-09T06:47:47.631Z,11.85
2023-02-09T06:50:17.346Z,10.98
2023-02-09T06:52:45.585Z,12.10
2023-02-09T06:55:14.549Z,9.75
2023-02-09T06:57:42.608Z,10.52
2023-02-09T07:00:13.044Z,11.80
2023-02-09T07:02:44.265Z,11.55
2023-02-09T07:05:12.613Z,9.98
2023-02-09T07:07:41.278Z,11.70
2023-02-09T07:10:11.910Z,10.20
2023-02-09T07:12:40.747Z,9.60
2023-02-09T07:15:09.665Z,10.02
2023-02-09T07:17:37.904Z,11.52
2023-02-09T07:20:09.384Z,9.63
2023-02-09T07:22:38.003Z,10.13
2023-02-09T07:25:06.849Z,11.48
2023-02-09T07:27:34.933Z,10.43
2023-02-09T07:30:03.007Z,10.45
2023-02-09T07:32:31.064Z,10.65
2023-02-09T07:35:00.140Z,8.90
2023-02-09T07:37:29.714Z,9.30
2023-02-09T07:39:57.765Z,10.45
2023-02-09T07:42:25.745Z,9.57
2023-02-09T07:44:53.842Z,9.45
2023-02-09T07:47:27.609Z,10.10
2023-02-09T07:49:55.719Z,8.90
2023-02-09T07:52:23.788Z,10.13
2023-02-09T07:54:53.096Z,9.57
2023-02-09T07:57:21.081Z,8.90
2023-02-09T07:59:49.067Z,9.10
2023-02-09T08:02:24.462Z,7.90
2023-02-09T08:04:53.126Z,7.90
2023-02-09T08:07:21.144Z,8.50
2023-02-09T08:09:49.231Z,8.63
2023-02-09T08:12:18.884Z,8.05
2023-02-09T08:14:48.856Z,8.15
2023-02-09T08:17:24.243Z,8.50
2023-02-09T08:19:57.039Z,8.77
2023-02-09T08:22:29.260Z,7.72
2023-02-09T08:24:59.471Z,8.23
2023-02-09T08:27:29.441Z,8.40
2023-02-09T08:29:58.501Z,7.55
2023-02-09T08:32:26.599Z,7.05
2023-02-09T08:34:54.617Z,7.00
2023-02-09T08:37:22.716Z,7.20
2023-02-09T08:39:50.904Z,6.88
2023-02-09T08:42:19.229Z,7.07
2023-02-09T08:44:48.717Z,7.30
2023-02-09T08:47:16.891Z,7.25
2023-02-09T08:49:45.269Z,6.65
2023-02-09T08:52:13.655Z,6.70
2023-02-09T08:54:41.757Z,6.53
2023-02-09T08:57:14.893Z,7.20
2023-02-09T08:59:42.878Z,6.55
2023-02-09T09:02:12.128Z,6.05
2023-02-09T09:04:40.153Z,6.97
2023-02-09T09:07:08.261Z,6.57
2023-02-09T09:09:36.620Z,6.72
2023-02-09T09:12:06.094Z,6.78
2023-02-09T09:14:34.610Z,7.18
2023-02-09T09:17:02.779Z,6.85
2023-02-09T09:19:32.389Z,6.45
2023-02-09T09:22:04.097Z,7.13
2023-02-09T09:24:40.666Z,5.68
2023-02-09T09:27:11.951Z,6.75
2023-02-09T09:29:40.884Z,3.97
2023-02-09T09:32:14.286Z,5.80
2023-02-09T09:34:49.183Z,5.95
2023-02-09T09:37:25.847Z,6.53
2023-02-09T09:39:57.547Z,6.45
2023-02-09T09:42:39.449Z,6.03
2023-02-09T09:45:21.224Z,6.03
2023-02-09T09:47:50.240Z,5.80
2023-02-09T09:50:26.749Z,6.13
2023-02-09T09:53:00.840Z,6.50
2023-02-09T09:58:21.174Z,5.43
2023-02-09T10:00:51.297Z,5.72
2023-02-09T10:03:21.842Z,4.30
2023-02-09T10:05:59.129Z,5.45
2023-02-09T10:08:33.795Z,5.38
2023-02-09T10:11:05.995Z,6.43
2023-02-09T10:13:38.182Z,4.72
2023-02-09T10:16:19.654Z,5.05
2023-02-09T10:18:51.855Z,5.70
2023-02-09T10:21:22.332Z,4.53
2023-02-09T10:24:13.113Z,5.15
2023-02-09T10:26:44.540Z,5.10
2023-02-09T10:29:28.117Z,5.05
2023-02-09T10:32:03.750Z,5.15
2023-02-09T10:34:42.083Z,5.28
2023-02-09T10:37:28.476Z,5.35
2023-02-09T10:40:05.409Z,4.93
2023-02-09T10:42:35.820Z,5.38
2023-02-09T10:45:15.069Z,4.85
2023-02-09T10:47:47.845Z,13.27
2023-02-09T10:50:20.014Z,6.38
2023-02-09T10:53:05.621Z,6.78
2023-02-09T10:55:45.049Z,5.65
2023-02-09T11:01:04.206Z,4.90
2023-02-09T11:04:09.984Z,5.70
2023-02-09T11:06:48.480Z,6.70
2023-02-09T11:09:34.602Z,7.90
2023-02-09T11:12:15.406Z,6.15
2023-02-09T11:14:53.373Z,5.65
2023-02-09T11:17:31.683Z,6.38
2023-02-09T11:20:36.070Z,5.22
2023-02-09T11:23:38.194Z,6.60
2023-02-09T11:26:36.613Z,7.60
2023-02-09T11:29:24.103Z,5.47
2023-02-09T11:32:17.343Z,5.97
2023-02-09T11:35:11.138Z,8.70
2023-02-09T11:38:03.936Z,6.00
2023-02-09T11:43:33.648Z,6.13
2023-02-09T11:46:36.057Z,6.57
2023-02-09T11:49:18.077Z,7.05
2023-02-09T11:51:53.317Z,6.72
2023-02-09T11:54:26.189Z,6.82
2023-02-09T11:57:02.696Z,7.07
2023-02-09T11:59:42.894Z,7.82
2023-02-09T12:02:34.512Z,7.50
2023-02-09T12:05:03.831Z,14.48
2023-02-09T12:08:31.871Z,7.32
2023-02-09T12:11:35.617Z,7.13
2023-02-09T12:14:20.924Z,7.97
2023-02-09T12:17:04.909Z,8.13
2023-02-09T12:19:40.395Z,9.32
2023-02-09T12:23:09.667Z,8.23
2023-02-09T12:26:05.333Z,8.23
2023-02-09T12:28:53.083Z,8.30
2023-02-09T12:31:31.945Z,9.88
2023-02-09T12:34:43.200Z,8.52
2023-02-09T12:37:36.955Z,8.27
2023-02-09T12:40:36.005Z,9.10
2023-02-09T12:43:34.351Z,7.90
2023-02-09T12:46:48.927Z,8.48
2023-02-09T12:49:36.412Z,10.88
2023-02-09T12:52:20.851Z,8.27
2023-02-09T12:54:58.085Z,8.13
2023-02-09T12:58:08.579Z,9.60
2023-02-09T13:01:02.171Z,9.45
2023-02-09T13:03:52.018Z,9.20
2023-02-09T13:06:43.188Z,8.55
2023-02-09T13:09:20.736Z,9.52
2023-02-09T13:12:02.296Z,9.48
2023-02-09T13:14:49.956Z,8.55
2023-02-09T13:21:30.327Z,6.93
2023-02-09T13:24:16.483Z,8.70
2023-02-09T13:26:58.875Z,6.95
2023-02-09T13:32:35.150Z,6.63
2023-02-09T13:35:23.958Z,7.55
2023-02-09T13:38:44.093Z,6.97
2023-02-09T13:41:31.055Z,7.88
2023-02-09T13:44:01.575Z,7.95
2023-02-09T13:46:50.701Z,7.80
2023-02-09T13:49:44.916Z,8.27
2023-02-09T13:52:39.434Z,8.18
2023-02-09T13:55:24.014Z,7.30
2023-02-09T13:58:12.108Z,8.45
2023-02-09T14:01:06.222Z,8.60
2023-02-09T14:03:58.137Z,7.60
2023-02-09T14:06:39.336Z,7.60
2023-02-09T14:09:21.140Z,7.35
2023-02-09T14:12:12.761Z,8.77
2023-02-09T14:15:10.975Z,8.15
2023-02-09T14:18:03.812Z,7.72
2023-02-09T14:23:10.933Z,7.93
2023-02-09T14:25:44.789Z,8.70
2023-02-09T14:28:17.617Z,8.73
2023-02-09T14:33:29.846Z,8.20
2023-02-09T14:36:01.903Z,8.63
2023-02-09T14:38:43.602Z,8.18
2023-02-09T14:41:34.800Z,8.68
2023-02-09T14:44:15.862Z,8.52
2023-02-09T14:46:59.649Z,7.50
2023-02-09T14:49:37.366Z,8.57
2023-02-09T14:52:18.824Z,9.55
2023-02-09T14:54:53.545Z,8.20
2023-02-09T14:57:25.778Z,7.38
2023-02-09T15:00:00.921Z,7.85
2023-02-09T15:02:34.890Z,8.95
2023-02-09T15:05:16.300Z,8.43
2023-02-09T15:07:51.117Z,9.10
2023-02-09T15:10:30.801Z,7.55
2023-02-09T15:13:14.447Z,8.57
2023-02-09T15:15:43.476Z,8.00
2023-02-09T15:18:19.947Z,8.82
2023-02-09T15:20:51.014Z,8.20
2023-02-09T15:23:38.394Z,7.65
2023-02-09T15:26:20.547Z,8.75
2023-02-09T15:28:53.869Z,8.60
2023-02-09T15:31:22.292Z,8.60
2023-02-09T15:33:52.129Z,9.00
2023-02-09T15:36:21.704Z,8.63
2023-02-09T15:38:49.895Z,9.07
2023-02-09T15:41:36.297Z,8.98
2023-02-09T15:44:30.911Z,8.63
2023-02-09T15:47:16.605Z,8.77
2023-02-09T15:49:46.321Z,9.23
2023-02-09T15:52:19.173Z,8.52
2023-02-09T15:54:47.554Z,9.40
2023-02-09T15:57:16.895Z,8.73
2023-02-09T15:59:46.392Z,8.88
2023-02-09T16:02:16.592Z,8.63
2023-02-09T16:04:46.478Z,8.68
2023-02-09T16:07:24.900Z,7.95
2023-02-09T16:09:53.876Z,8.73
2023-02-09T16:12:22.185Z,8.73
2023-02-09T16:14:53.081Z,7.90
2023-02-09T16:17:21.762Z,9.20
2023-02-09T16:19:51.418Z,8.23
2023-02-09T16:22:23.546Z,8.57
2023-02-09T16:24:51.920Z,8.88
2023-02-09T16:27:25.560Z,9.80
2023-02-09T16:29:53.728Z,8.95
2023-02-09T16:32:23.469Z,8.30
2023-02-09T16:34:55.051Z,8.35
2023-02-09T16:37:36.069Z,8.75
2023-02-09T16:40:08.533Z,8.52
2023-02-09T16:42:42.125Z,10.13
2023-02-09T16:45:14.230Z,11.63
2023-02-09T16:47:50.252Z,9.90
2023-02-09T16:50:26.737Z,9.45
2023-02-09T16:52:57.194Z,9.32
2023-02-09T16:55:30.414Z,12.55
2023-02-09T16:58:02.084Z,8.88
2023-02-09T17:00:31.825Z,10.80
2023-02-09T17:03:03.989Z,14.52
2023-02-09T17:05:44.213Z,13.90
2023-02-09T17:08:19.018Z,25.73
2023-02-09T17:10:51.520Z,9.38
2023-02-09T17:15:50.909Z,10.00
2023-02-09T17:18:22.956Z,14.40
2023-02-09T17:20:56.053Z,12.73
2023-02-09T17:23:26.593Z,10.85
2023-02-09T17:25:55.656Z,10.57
2023-02-09T17:28:24.396Z,9.77
2023-02-09T17:30:55.394Z,9.23
2023-02-09T17:33:31.003Z,11.98
2023-02-09T17:38:48.850Z,10.13
2023-02-09T17:41:19.210Z,11.05
2023-02-09T17:43:47.996Z,10.02
2023-02-09T17:46:19.214Z,9.75
2023-02-09T17:48:51.050Z,10.43
2023-02-09T17:51:23.168Z,10.57
2023-02-09T17:53:51.721Z,10.73
2023-02-09T17:56:22.807Z,10.38
2023-02-09T17:58:51.174Z,10.68
2023-02-09T18:01:27.383Z,10.93
2023-02-09T18:04:00.348Z,10.90
2023-02-09T18:06:35.133Z,16.52
2023-02-09T18:09:04.671Z,12.98
2023-02-09T18:12:01.750Z,12.32
2023-02-09T18:14:35.120Z,10.82
2023-02-09T18:17:04.932Z,10.95
2023-02-09T18:19:38.644Z,11.45
2023-02-09T18:22:11.641Z,10.98
2023-02-09T18:24:39.715Z,11.07
2023-02-09T18:27:16.472Z,11.20
2023-02-09T18:29:47.897Z,11.52
2023-02-09T18:32:18.384Z,12.15
2023-02-09T18:34:48.644Z,12.15
2023-02-09T18:37:19.779Z,11.48
2023-02-09T18:39:48.246Z,12.20
2023-02-09T18:42:17.761Z,11.68
2023-02-09T18:44:46.273Z,12.23
2023-02-09T18:47:14.825Z,12.23
2023-02-09T18:49:43.159Z,13.02
2023-02-09T18:52:21.324Z,12.80
2023-02-09T18:54:50.691Z,12.48
2023-02-09T18:57:19.587Z,12.70
2023-02-09T18:59:48.123Z,11.82
2023-02-09T19:02:16.886Z,12.93
2023-02-09T19:04:45.236Z,12.43
2023-02-09T19:07:18.249Z,12.65
2023-02-09T19:09:47.414Z,13.82
2023-02-09T19:12:15.596Z,13.30
2023-02-09T19:14:46.924Z,13.13
2023-02-09T19:17:19.658Z,13.50
2023-02-09T19:19:49.818Z,13.05
2023-02-09T19:22:21.660Z,12.40
2023-02-09T19:24:53.736Z,15.13
2023-02-09T19:27:24.389Z,14.18
2023-02-09T19:29:55.792Z,12.65
2023-02-09T19:32:25.756Z,13.60
2023-02-09T19:34:54.249Z,14.52
2023-02-09T19:37:25.472Z,12.38
2023-02-09T19:40:00.482Z,13.68
2023-02-09T19:42:28.627Z,15.13
2023-02-09T19:44:59.802Z,12.90
2023-02-09T19:47:28.245Z,13.35
2023-02-09T19:50:00.539Z,13.93
2023-02-09T19:52:30.184Z,13.77
2023-02-09T19:54:58.539Z,13.43
2023-02-09T19:57:27.037Z,13.70
2023-02-09T19:59:55.207Z,13.13
2023-02-09T20:02:23.440Z,13.93
2023-02-09T20:04:51.722Z,14.20
2023-02-09T20:07:20.067Z,14.27
2023-02-09T20:09:52.288Z,14.32
2023-02-09T20:12:21.615Z,13.80
2023-02-09T20:14:50.235Z,14.30
2023-02-09T20:19:47.813Z,13.40
2023-02-09T20:22:16.029Z,14.25
2023-02-09T20:24:44.554Z,13.43
2023-02-09T20:27:14.320Z,13.23
2023-02-09T20:29:42.378Z,12.80
2023-02-09T20:32:10.948Z,13.15
2023-02-09T20:34:39.103Z,12.90
2023-02-09T20:37:07.268Z,12.80
2023-02-09T20:39:35.684Z,13.40
2023-02-09T20:42:22.028Z,12.50
2023-02-09T20:45:09.188Z,12.40
2023-02-09T20:47:37.426Z,12.32
2023-02-09T20:50:06.032Z,12.15
2023-02-09T20:52:34.674Z,12.95
2023-02-09T20:55:02.965Z,12.75
2023-02-09T20:57:31.515Z,13.15
2023-02-09T21:00:01.694Z,12.73
2023-02-09T21:02:29.774Z,13.88
2023-02-09T21:04:59.455Z,12.48
2023-02-09T21:07:28.213Z,12.32
2023-02-09T21:09:56.414Z,13.40
2023-02-09T21:12:24.656Z,13.63
2023-02-09T21:14:53.455Z,13.10
2023-02-09T21:17:23.513Z,13.48
2023-02-09T21:19:51.933Z,12.68
2023-02-09T21:22:20.094Z,14.70
2023-02-09T21:24:48.334Z,13.32
2023-02-09T21:27:16.988Z,13.85
2023-02-09T21:29:45.089Z,13.50
2023-02-09T21:32:13.148Z,14.35
2023-02-09T21:34:44.127Z,13.65
2023-02-09T21:37:14.061Z,13.80
2023-02-09T21:39:42.359Z,14.43
2023-02-09T21:42:30.614Z,13.70
2023-02-09T21:45:00.514Z,12.35
2023-02-09T21:47:33.568Z,11.88
2023-02-09T21:50:06.680Z,12.57
2023-02-09T21:52:35.454Z,12.93
2023-02-09T21:55:03.843Z,12.25
2023-02-09T21:57:36.866Z,12.07
2023-02-09T22:00:07.694Z,12.13
2023-02-09T22:02:37.502Z,12.85
2023-02-09T22:05:08.518Z,12.93
2023-02-09T22:07:37.114Z,11.77
2023-02-09T22:10:06.295Z,12.70
2023-02-09T22:12:36.431Z,12.40
2023-02-09T22:15:04.970Z,12.98
2023-02-09T22:17:33.207Z,13.02
2023-02-09T22:20:01.346Z,12.13
2023-02-09T22:22:31.003Z,12.77
2023-02-09T22:24:59.246Z,11.45
2023-02-09T22:27:27.661Z,11.73
2023-02-09T22:29:55.725Z,12.85
2023-02-09T22:32:24.386Z,12.60
2023-02-09T22:34:52.533Z,12.52
2023-02-09T22:37:20.662Z,11.82
2023-02-09T22:39:50.198Z,11.05
2023-02-09T22:42:18.293Z,10.70
2023-02-09T22:44:46.535Z,10.75
2023-02-09T22:47:14.689Z,11.68
2023-02-09T22:49:45.326Z,12.00
2023-02-09T22:52:13.816Z,11.88
2023-02-09T22:54:41.828Z,10.43
2023-02-09T22:57:11.353Z,11.88
2023-02-09T22:59:39.485Z,12.38
2023-02-09T23:02:07.665Z,11.27
2023-02-09T23:04:35.757Z,11.43
2023-02-09T23:07:05.142Z,12.00
2023-02-09T23:09:33.316Z,10.82
2023-02-09T23:12:01.699Z,11.77
2023-02-09T23:14:31.329Z,12.20
2023-02-09T23:16:59.812Z,11.95
2023-02-09T23:19:28.071Z,10.63
2023-02-09T23:21:56.022Z,11.43
2023-02-09T23:24:28.117Z,11.68
2023-02-09T23:26:56.142Z,11.93
2023-02-09T23:29:24.669Z,12.10
2023-02-09T23:31:54.516Z,11.57
2023-02-09T23:34:24.062Z,11.25
2023-02-09T23:36:52.926Z,12.15
2023-02-09T23:39:22.505Z,11.43
2023-02-09T23:41:50.818Z,11.43
2023-02-09T23:44:19.537Z,11.73
2023-02-09T23:46:47.834Z,11.48
2023-02-09T23:49:22.764Z,11.00
2023-02-09T23:51:51.340Z,12.65
2023-02-09T23:54:19.576Z,11.38
2023-02-09T23:56:49.778Z,12.02
2023-02-09T23:59:18.011Z,11.95
